createdAt,value
2019-03-15T00:02:22.950Z,41.02
2019-03-15T00:04:53.289Z,40.92
2019-03-15T00:07:23.633Z,40.92
2019-03-15T00:09:53.961Z,40.80
2019-03-15T00:12:24.363Z,40.69
2019-03-15T00:14:54.654Z,40.63
2019-03-15T00:17:24.974Z,40.63
2019-03-15T00:19:55.361Z,40.56
2019-03-15T00:22:25.886Z,40.50
2019-03-15T00:24:56.272Z,40.51
2019-03-15T00:27:26.571Z,40.46
2019-03-15T00:29:57.616Z,40.43
2019-03-15T00:32:28.306Z,40.36
2019-03-15T00:34:59.065Z,40.26
2019-03-15T00:37:30.762Z,40.27
2019-03-15T00:40:01.529Z,40.22
2019-03-15T00:42:36.384Z,40.19
2019-03-15T00:45:08.344Z,40.17
2019-03-15T00:47:39.032Z,40.16
2019-03-15T00:50:10.208Z,40.12
2019-03-15T00:52:40.544Z,39.99
2019-03-15T00:55:10.953Z,39.98
2019-03-15T00:57:41.361Z,39.99
2019-03-15T01:00:12.926Z,39.93
2019-03-15T01:02:44.373Z,39.84
2019-03-15T01:05:14.887Z,39.88
2019-03-15T01:07:45.155Z,39.86
2019-03-15T01:10:15.614Z,39.82
2019-03-15T01:12:46.028Z,39.77
2019-03-15T01:15:16.539Z,39.71
2019-03-15T01:17:46.985Z,39.61
2019-03-15T01:20:17.235Z,39.62
2019-03-15T01:22:48.901Z,39.55
2019-03-15T01:25:19.250Z,39.58
2019-03-15T01:27:49.580Z,39.59
2019-03-15T01:30:24.834Z,39.58
2019-03-15T01:32:55.187Z,39.58
2019-03-15T01:35:25.443Z,39.79
2019-03-15T01:37:55.725Z,39.92
2019-03-15T01:40:26.092Z,40.15
2019-03-15T01:42:56.424Z,40.16
2019-03-15T01:45:26.896Z,40.70
2019-03-15T01:47:57.272Z,40.77
2019-03-15T01:50:27.603Z,40.83
2019-03-15T01:52:58.509Z,40.90
2019-03-15T01:55:28.897Z,40.86
2019-03-15T01:57:59.184Z,40.85
2019-03-15T02:00:29.429Z,40.96
2019-03-15T02:03:02.354Z,40.97
2019-03-15T02:05:31.792Z,40.96
2019-03-15T02:08:02.131Z,41.02
2019-03-15T02:10:32.792Z,40.93
2019-03-15T02:13:03.264Z,40.99
2019-03-15T02:15:33.597Z,40.84
2019-03-15T02:18:04.174Z,40.94
2019-03-15T02:20:34.777Z,41.04
2019-03-15T02:23:06.747Z,40.81
2019-03-15T02:25:37.310Z,40.96
2019-03-15T02:28:08.019Z,40.81
2019-03-15T02:30:38.340Z,40.99
2019-03-15T02:33:08.766Z,41.00
2019-03-15T02:35:39.183Z,40.91
2019-03-15T02:38:09.534Z,40.98
2019-03-15T02:40:40.232Z,40.90
2019-03-15T02:43:13.311Z,40.93
2019-03-15T02:45:43.651Z,40.87
2019-03-15T02:48:15.077Z,40.91
2019-03-15T02:50:47.209Z,41.01
2019-03-15T02:53:17.593Z,40.98
2019-03-15T02:55:48.532Z,41.09
2019-03-15T02:58:20.048Z,41.03
2019-03-15T03:00:50.411Z,40.50
2019-03-15T03:03:21.005Z,40.35
2019-03-15T03:05:51.333Z,39.93
2019-03-15T03:08:22.627Z,40.23
2019-03-15T03:10:53.105Z,40.20
2019-03-15T03:13:23.406Z,40.19
2019-03-15T03:15:53.843Z,40.02
2019-03-15T03:18:24.086Z,40.23
2019-03-15T03:20:54.425Z,39.93
2019-03-15T03:23:24.771Z,40.07
2019-03-15T03:25:55.677Z,40.17
2019-03-15T03:28:25.883Z,40.16
2019-03-15T03:30:56.194Z,40.16
2019-03-15T03:33:26.563Z,40.06
2019-03-15T03:35:56.856Z,40.18
2019-03-15T03:38:27.219Z,40.35
2019-03-15T03:40:57.487Z,40.05
2019-03-15T03:43:28.876Z,40.00
2019-03-15T03:45:59.126Z,39.97
2019-03-15T03:48:29.358Z,40.11
2019-03-15T03:51:00.363Z,40.11
2019-03-15T03:53:33.668Z,39.85
2019-03-15T03:56:04.005Z,39.54
2019-03-15T03:58:34.247Z,39.09
2019-03-15T04:01:07.423Z,39.10
2019-03-15T04:03:37.663Z,39.04
2019-03-15T04:06:07.902Z,39.16
2019-03-15T04:08:38.207Z,39.20
2019-03-15T04:11:08.561Z,39.03
2019-03-15T04:13:38.950Z,38.95
2019-03-15T04:16:12.051Z,38.86
2019-03-15T04:18:42.391Z,39.10
2019-03-15T04:21:13.088Z,39.18
2019-03-15T04:23:43.419Z,39.27
2019-03-15T04:26:14.814Z,39.28
2019-03-15T04:28:45.150Z,39.21
2019-03-15T04:31:15.391Z,39.24
2019-03-15T04:33:45.676Z,39.22
2019-03-15T04:36:16.176Z,39.23
2019-03-15T04:38:46.749Z,39.19
2019-03-15T04:41:18.075Z,39.12
2019-03-15T04:43:48.439Z,39.20
2019-03-15T04:46:18.780Z,39.13
2019-03-15T04:48:50.088Z,39.13
2019-03-15T04:51:20.412Z,39.13
2019-03-15T04:53:50.733Z,39.13
2019-03-15T04:56:21.101Z,39.06
2019-03-15T04:58:51.511Z,39.11
2019-03-15T05:01:21.829Z,39.15
2019-03-15T05:03:53.739Z,39.16
2019-03-15T05:06:24.039Z,38.98
2019-03-15T05:08:54.356Z,38.95
2019-03-15T05:11:24.591Z,39.00
2019-03-15T05:13:54.986Z,39.02
2019-03-15T05:16:25.999Z,38.98
2019-03-15T05:18:56.349Z,38.94
2019-03-15T05:21:27.755Z,39.02
2019-03-15T05:23:58.214Z,38.94
2019-03-15T05:26:28.658Z,38.93
2019-03-15T05:29:00.209Z,38.99
2019-03-15T05:31:30.567Z,38.98
2019-03-15T05:34:00.827Z,38.99
2019-03-15T05:36:31.152Z,38.86
2019-03-15T05:39:04.103Z,38.90
2019-03-15T05:41:34.483Z,38.67
2019-03-15T05:44:04.803Z,38.42
2019-03-15T05:46:35.055Z,38.24
2019-03-15T05:49:05.355Z,38.90
2019-03-15T05:51:35.696Z,39.20
2019-03-15T05:54:06.031Z,39.50
2019-03-15T05:56:36.347Z,39.59
2019-03-15T05:59:06.747Z,39.70
2019-03-15T06:01:37.046Z,39.61
2019-03-15T06:04:07.377Z,39.18
2019-03-15T06:06:38.101Z,38.65
2019-03-15T06:09:08.476Z,38.29
2019-03-15T06:11:38.790Z,38.48
2019-03-15T06:14:09.065Z,38.52
2019-03-15T06:16:39.352Z,38.22
2019-03-15T06:19:09.717Z,38.27
2019-03-15T06:21:40.081Z,38.21
2019-03-15T06:24:13.789Z,38.02
2019-03-15T06:26:45.519Z,38.26
2019-03-15T06:29:15.785Z,38.28
2019-03-15T06:31:46.197Z,38.09
2019-03-15T06:34:16.452Z,38.07
2019-03-15T06:36:46.702Z,37.95
2019-03-15T06:39:16.972Z,38.03
2019-03-15T06:41:47.295Z,37.96
2019-03-15T06:44:17.676Z,37.93
2019-03-15T06:46:48.123Z,37.92
2019-03-15T06:49:18.434Z,37.92
2019-03-15T06:51:48.762Z,37.84
2019-03-15T06:54:19.114Z,37.74
2019-03-15T06:56:49.478Z,37.76
2019-03-15T06:59:19.794Z,37.77
2019-03-15T07:01:50.733Z,37.66
2019-03-15T07:04:21.399Z,37.72
2019-03-15T07:06:51.660Z,37.65
2019-03-15T07:09:22.004Z,37.55
2019-03-15T07:11:52.376Z,37.53
2019-03-15T07:14:22.756Z,37.51
2019-03-15T07:16:52.976Z,37.49
2019-03-15T07:19:27.630Z,37.54
2019-03-15T07:21:55.811Z,37.41
2019-03-15T07:24:26.258Z,37.40
2019-03-15T07:26:56.384Z,37.41
2019-03-15T07:29:26.716Z,37.41
2019-03-15T07:31:57.646Z,37.35
2019-03-15T07:34:27.940Z,37.38
2019-03-15T07:36:58.273Z,37.32
2019-03-15T07:39:28.546Z,37.21
2019-03-15T07:42:00.922Z,37.16
2019-03-15T07:44:31.357Z,37.18
2019-03-15T07:47:02.107Z,37.25
2019-03-15T07:49:32.353Z,37.28
2019-03-15T07:52:03.995Z,37.28
2019-03-15T07:54:38.259Z,37.32
2019-03-15T07:57:06.536Z,37.09
2019-03-15T07:59:36.838Z,37.01
2019-03-15T08:02:08.722Z,37.19
2019-03-15T08:04:39.061Z,37.10
2019-03-15T08:07:09.378Z,37.09
2019-03-15T08:09:39.737Z,37.01
2019-03-15T08:12:09.991Z,37.15
2019-03-15T08:14:40.274Z,37.11
2019-03-15T08:17:10.581Z,37.06
2019-03-15T08:19:40.859Z,36.98
2019-03-15T08:22:11.241Z,37.07
2019-03-15T08:24:50.860Z,37.00
2019-03-15T08:27:16.088Z,37.11
2019-03-15T08:29:45.731Z,37.01
2019-03-15T08:32:16.080Z,37.09
2019-03-15T08:34:46.617Z,36.97
2019-03-15T08:37:16.976Z,37.01
2019-03-15T08:39:47.404Z,36.92
2019-03-15T08:42:17.703Z,37.00
2019-03-15T08:44:47.983Z,36.87
2019-03-15T08:47:21.537Z,36.92
2019-03-15T08:49:50.432Z,36.78
2019-03-15T08:52:20.781Z,36.72
2019-03-15T08:55:04.716Z,36.82
2019-03-15T08:57:24.407Z,36.79
2019-03-15T08:59:57.716Z,36.80
2019-03-15T09:02:26.703Z,36.85
2019-03-15T09:04:57.029Z,36.80
2019-03-15T09:07:27.315Z,36.80
2019-03-15T09:09:57.566Z,36.89
2019-03-15T09:12:29.591Z,36.77
2019-03-15T09:14:59.883Z,36.92
2019-03-15T09:17:30.251Z,36.72
2019-03-15T09:20:00.648Z,36.65
2019-03-15T09:22:31.361Z,36.65
2019-03-15T09:25:02.812Z,36.72
2019-03-15T09:27:33.254Z,36.70
2019-03-15T09:30:03.722Z,36.73
2019-03-15T09:32:34.053Z,36.84
2019-03-15T09:35:04.464Z,36.67
2019-03-15T09:37:35.162Z,36.80
2019-03-15T09:40:06.968Z,36.71
2019-03-15T09:42:37.223Z,36.68
2019-03-15T09:45:09.617Z,36.65
2019-03-15T09:47:39.871Z,36.74
2019-03-15T09:50:21.528Z,36.64
2019-03-15T09:52:43.283Z,36.61
2019-03-15T09:55:13.711Z,36.55
2019-03-15T09:57:44.000Z,36.53
2019-03-15T10:00:15.529Z,36.55
2019-03-15T10:02:45.831Z,36.50
2019-03-15T10:05:16.170Z,36.54
2019-03-15T10:07:46.618Z,36.57
2019-03-15T10:10:19.093Z,36.46
2019-03-15T10:12:50.803Z,36.48
2019-03-15T10:15:21.063Z,36.44
2019-03-15T10:17:51.454Z,36.39
2019-03-15T10:20:21.681Z,36.52
2019-03-15T10:23:05.607Z,36.52
2019-03-15T10:25:24.046Z,36.47
2019-03-15T10:27:55.523Z,36.54
2019-03-15T10:30:25.837Z,36.48
2019-03-15T10:32:56.134Z,36.52
2019-03-15T10:35:26.412Z,36.50
2019-03-15T10:37:56.824Z,36.44
2019-03-15T10:40:27.065Z,36.48
2019-03-15T10:42:57.498Z,36.46
2019-03-15T10:45:27.746Z,36.50
2019-03-15T10:47:58.152Z,36.36
2019-03-15T10:50:28.421Z,36.35
2019-03-15T10:52:58.813Z,36.38
2019-03-15T10:55:29.123Z,36.36
2019-03-15T10:57:59.530Z,35.66
2019-03-15T11:00:30.142Z,36.26
2019-03-15T11:03:00.446Z,36.23
2019-03-15T11:05:30.682Z,36.31
2019-03-15T11:08:01.033Z,36.44
2019-03-15T11:10:31.382Z,36.55
2019-03-15T11:13:01.696Z,36.59
2019-03-15T11:15:32.006Z,36.58
2019-03-15T11:18:02.375Z,36.52
2019-03-15T11:20:32.980Z,36.63
2019-03-15T11:23:03.374Z,36.57
2019-03-15T11:25:34.231Z,36.67
2019-03-15T11:28:04.554Z,36.69
2019-03-15T11:30:34.799Z,36.72
2019-03-15T11:33:05.176Z,36.68
2019-03-15T11:35:35.560Z,36.69
2019-03-15T11:38:05.954Z,36.80
2019-03-15T11:40:37.970Z,36.85
2019-03-15T11:43:08.190Z,36.73
2019-03-15T11:45:38.576Z,36.77
2019-03-15T11:48:09.236Z,36.79
2019-03-15T11:50:39.673Z,36.92
2019-03-15T11:53:10.044Z,37.00
2019-03-15T11:55:40.452Z,37.01
2019-03-15T11:58:11.191Z,36.98
2019-03-15T12:00:42.449Z,37.11
2019-03-15T12:03:12.737Z,37.20
2019-03-15T12:05:43.024Z,37.25
2019-03-15T12:08:13.345Z,37.22
2019-03-15T12:10:43.605Z,37.26
2019-03-15T12:13:14.002Z,37.25
2019-03-15T12:15:44.407Z,37.27
2019-03-15T12:18:14.701Z,37.28
2019-03-15T12:20:45.080Z,37.30
2019-03-15T12:23:15.963Z,37.26
2019-03-15T12:25:46.231Z,37.34
2019-03-15T12:28:16.485Z,37.31
2019-03-15T12:30:46.695Z,37.30
2019-03-15T12:33:16.918Z,37.36
2019-03-15T12:35:47.687Z,37.31
2019-03-15T12:38:17.955Z,37.30
2019-03-15T12:40:48.269Z,37.26
2019-03-15T12:43:18.511Z,37.36
2019-03-15T12:45:48.784Z,37.36
2019-03-15T12:48:19.655Z,37.33
2019-03-15T12:50:49.935Z,37.38
2019-03-15T12:53:18.545Z,37.37
2019-03-15T12:55:49.162Z,37.35
2019-03-15T12:58:19.614Z,37.31
2019-03-15T13:00:50.584Z,37.41
2019-03-15T13:03:20.942Z,37.34
2019-03-15T13:05:51.267Z,37.34
2019-03-15T13:08:22.204Z,37.38
2019-03-15T13:10:52.567Z,37.46
2019-03-15T13:13:22.945Z,37.42
2019-03-15T13:15:53.893Z,37.48
2019-03-15T13:18:24.127Z,37.51
2019-03-15T13:20:54.513Z,37.49
2019-03-15T13:23:28.367Z,37.46
2019-03-15T13:25:59.808Z,37.47
2019-03-15T13:28:31.492Z,37.43
2019-03-15T13:31:06.290Z,34.38
2019-03-15T13:33:36.530Z,31.85
2019-03-15T13:36:06.913Z,34.28
2019-03-15T13:38:37.117Z,35.59
2019-03-15T13:41:07.500Z,35.75
2019-03-15T13:43:38.179Z,35.97
2019-03-15T13:46:08.427Z,36.07
2019-03-15T13:48:38.780Z,36.21
2019-03-15T13:51:09.075Z,36.27
2019-03-15T13:53:39.417Z,36.50
2019-03-15T13:56:10.080Z,36.21
2019-03-15T13:58:40.463Z,36.32
2019-03-15T14:01:11.267Z,36.31
2019-03-15T14:03:41.662Z,36.08
2019-03-15T14:06:12.273Z,36.12
2019-03-15T14:08:59.900Z,36.18
2019-03-15T14:11:36.503Z,36.36
2019-03-15T14:14:17.283Z,36.53
2019-03-15T14:16:57.806Z,36.52
2019-03-15T14:19:35.195Z,36.66
2019-03-15T14:22:12.464Z,36.60
2019-03-15T14:24:48.552Z,36.52
2019-03-15T14:27:37.562Z,36.46
2019-03-15T14:30:16.558Z,36.37
2019-03-15T14:32:55.164Z,36.63
2019-03-15T14:35:37.837Z,36.60
2019-03-15T14:38:13.944Z,36.71
2019-03-15T14:40:54.839Z,36.76
2019-03-15T14:43:31.411Z,36.91
2019-03-15T14:46:11.744Z,36.89
2019-03-15T14:48:46.059Z,36.94
2019-03-15T14:51:25.076Z,37.02
2019-03-15T14:54:03.045Z,37.10
2019-03-15T14:56:38.436Z,37.05
2019-03-15T14:59:08.700Z,37.13
2019-03-15T15:01:39.109Z,37.09
2019-03-15T15:04:09.439Z,37.17
2019-03-15T15:06:39.708Z,37.14
2019-03-15T15:09:09.953Z,37.36
2019-03-15T15:11:40.355Z,37.52
2019-03-15T15:14:15.752Z,37.28
2019-03-15T15:16:49.067Z,37.35
2019-03-15T15:19:22.876Z,37.30
2019-03-15T15:22:00.197Z,37.37
2019-03-15T15:24:44.512Z,37.23
2019-03-15T15:27:18.118Z,37.51
2019-03-15T15:29:54.252Z,37.40
2019-03-15T15:32:28.297Z,37.46
2019-03-15T15:35:02.568Z,37.43
2019-03-15T15:37:33.549Z,37.52
2019-03-15T15:40:03.828Z,37.38
2019-03-15T15:42:34.608Z,36.71
2019-03-15T15:45:05.375Z,37.21
2019-03-15T15:47:35.689Z,33.58
2019-03-15T15:50:06.134Z,32.57
2019-03-15T15:52:36.424Z,35.91
2019-03-15T15:55:06.781Z,36.18
2019-03-15T15:57:37.100Z,36.29
2019-03-15T16:00:09.097Z,36.27
2019-03-15T16:02:39.456Z,36.40
2019-03-15T16:05:10.002Z,36.43
2019-03-15T16:07:43.175Z,36.38
2019-03-15T16:10:13.504Z,36.37
2019-03-15T16:12:46.338Z,36.63
2019-03-15T16:15:16.568Z,36.67
2019-03-15T16:17:46.931Z,36.66
2019-03-15T16:20:19.237Z,36.67
2019-03-15T16:22:49.467Z,36.84
2019-03-15T16:25:19.888Z,37.00
2019-03-15T16:27:50.143Z,37.04
2019-03-15T16:30:20.453Z,37.12
2019-03-15T16:32:50.654Z,37.01
2019-03-15T16:35:22.911Z,36.95
2019-03-15T16:37:55.504Z,37.27
2019-03-15T16:40:28.289Z,37.29
2019-03-15T16:42:58.582Z,37.35
2019-03-15T16:45:32.290Z,37.39
2019-03-15T16:48:03.357Z,37.41
2019-03-15T16:50:33.682Z,37.41
2019-03-15T16:53:03.977Z,37.34
2019-03-15T16:55:34.456Z,37.42
2019-03-15T16:58:10.513Z,37.57
2019-03-15T17:00:41.210Z,37.95
2019-03-15T17:03:11.735Z,38.10
2019-03-15T17:05:42.739Z,38.21
2019-03-15T17:08:13.357Z,38.43
2019-03-15T17:10:43.952Z,38.62
2019-03-15T17:13:14.293Z,38.77
2019-03-15T17:15:44.872Z,38.79
2019-03-15T17:18:15.450Z,38.78
2019-03-15T17:20:46.120Z,38.73
2019-03-15T17:23:16.651Z,38.69
2019-03-15T17:25:48.259Z,38.60
2019-03-15T17:28:19.089Z,38.69
2019-03-15T17:30:51.572Z,38.73
2019-03-15T17:33:21.883Z,38.74
2019-03-15T17:35:52.332Z,38.76
2019-03-15T17:38:22.655Z,38.32
2019-03-15T17:40:52.979Z,38.57
2019-03-15T17:43:24.324Z,38.58
2019-03-15T17:45:54.664Z,38.57
2019-03-15T17:48:25.043Z,37.96
2019-03-15T17:50:55.460Z,37.89
2019-03-15T17:53:25.713Z,38.39
2019-03-15T17:55:56.725Z,38.41
2019-03-15T17:58:27.011Z,38.40
2019-03-15T18:00:57.334Z,38.46
2019-03-15T18:03:27.710Z,38.48
2019-03-15T18:05:58.309Z,38.49
2019-03-15T18:08:28.640Z,38.57
2019-03-15T18:11:01.128Z,38.52
2019-03-15T18:13:31.565Z,38.56
2019-03-15T18:16:01.815Z,37.69
2019-03-15T18:18:32.131Z,38.15
2019-03-15T18:21:02.521Z,38.26
2019-03-15T18:23:33.089Z,38.37
2019-03-15T18:26:03.654Z,38.38
2019-03-15T18:28:34.016Z,38.39
2019-03-15T18:31:04.427Z,38.41
2019-03-15T18:33:34.686Z,38.38
2019-03-15T18:36:05.137Z,38.38
2019-03-15T18:38:35.426Z,38.41
2019-03-15T18:41:05.682Z,38.41
2019-03-15T18:43:35.967Z,38.41
2019-03-15T18:46:06.295Z,38.41
2019-03-15T18:48:36.697Z,38.36
2019-03-15T18:51:07.037Z,38.35
2019-03-15T18:53:37.302Z,38.38
2019-03-15T18:56:09.859Z,38.36
2019-03-15T18:58:40.159Z,38.38
2019-03-15T19:01:10.483Z,38.35
2019-03-15T19:03:40.872Z,38.32
2019-03-15T19:06:11.201Z,38.29
2019-03-15T19:08:41.581Z,38.33
2019-03-15T19:11:11.862Z,38.34
2019-03-15T19:13:42.207Z,38.31
2019-03-15T19:16:20.087Z,38.26
2019-03-15T19:18:45.774Z,38.26
2019-03-15T19:21:16.355Z,38.21
2019-03-15T19:23:46.617Z,38.25
2019-03-15T19:26:16.987Z,38.22
2019-03-15T19:28:47.349Z,38.24
2019-03-15T19:31:17.642Z,38.11
2019-03-15T19:33:48.323Z,38.08
2019-03-15T19:36:18.689Z,38.25
2019-03-15T19:38:51.124Z,38.32
2019-03-15T19:41:21.343Z,38.25
2019-03-15T19:43:51.660Z,38.23
2019-03-15T19:46:21.951Z,38.22
2019-03-15T19:48:52.670Z,38.17
2019-03-15T19:51:23.188Z,38.20
2019-03-15T19:53:53.508Z,38.25
2019-03-15T19:56:23.897Z,38.27
2019-03-15T19:58:54.483Z,38.35
2019-03-15T20:01:24.776Z,38.38
2019-03-15T20:03:55.100Z,38.23
2019-03-15T20:06:25.594Z,38.24
2019-03-15T20:08:55.924Z,38.29
2019-03-15T20:11:27.348Z,38.30
2019-03-15T20:13:57.882Z,38.28
2019-03-15T20:16:28.360Z,38.44
2019-03-15T20:18:58.691Z,38.44
2019-03-15T20:21:29.183Z,38.39
2019-03-15T20:23:59.618Z,38.51
2019-03-15T20:26:29.925Z,38.59
2019-03-15T20:29:01.575Z,38.64
2019-03-15T20:31:31.971Z,38.70
2019-03-15T20:34:02.335Z,38.53
2019-03-15T20:36:33.819Z,38.43
2019-03-15T20:39:06.651Z,38.70
2019-03-15T20:41:37.735Z,38.45
2019-03-15T20:44:08.382Z,38.60
2019-03-15T20:46:40.307Z,38.59
2019-03-15T20:49:11.285Z,38.63
2019-03-15T20:51:44.935Z,38.64
2019-03-15T20:54:15.408Z,38.62
2019-03-15T20:56:47.467Z,38.60
2019-03-15T20:59:18.550Z,38.65
2019-03-15T21:01:49.450Z,38.68
2019-03-15T21:04:20.954Z,38.68
2019-03-15T21:06:54.254Z,38.72
2019-03-15T21:09:25.241Z,38.76
2019-03-15T21:11:56.466Z,38.75
2019-03-15T21:14:30.514Z,38.86
2019-03-15T21:17:01.916Z,39.32
2019-03-15T21:19:32.752Z,39.71
2019-03-15T21:22:04.134Z,39.61
2019-03-15T21:24:34.484Z,39.69
2019-03-15T21:27:08.423Z,39.85
2019-03-15T21:29:38.942Z,40.27
2019-03-15T21:32:09.383Z,40.38
2019-03-15T21:34:39.753Z,40.89
2019-03-15T21:37:10.188Z,40.73
2019-03-15T21:39:40.424Z,40.96
2019-03-15T21:42:10.868Z,40.81
2019-03-15T21:44:41.142Z,40.93
2019-03-15T21:47:11.425Z,40.67
2019-03-15T21:49:41.766Z,41.18
2019-03-15T21:52:12.096Z,41.43
2019-03-15T21:54:42.455Z,41.44
2019-03-15T21:57:12.771Z,41.67
2019-03-15T21:59:43.105Z,41.67
2019-03-15T22:02:15.214Z,41.70
2019-03-15T22:04:45.574Z,41.79
2019-03-15T22:07:16.003Z,41.57
2019-03-15T22:09:46.276Z,41.69
2019-03-15T22:12:16.633Z,41.82
2019-03-15T22:14:47.033Z,41.66
2019-03-15T22:17:17.283Z,41.60
2019-03-15T22:19:47.534Z,41.47
2019-03-15T22:22:20.207Z,41.29
2019-03-15T22:24:49.877Z,40.97
2019-03-15T22:27:23.025Z,40.93
2019-03-15T22:29:54.012Z,40.64
2019-03-15T22:32:25.416Z,40.39
2019-03-15T22:34:57.312Z,40.30
2019-03-15T22:37:27.626Z,40.22
2019-03-15T22:39:58.013Z,39.98
2019-03-15T22:42:28.305Z,39.86
2019-03-15T22:44:58.639Z,39.83
2019-03-15T22:47:30.637Z,39.76
2019-03-15T22:50:01.846Z,39.57
2019-03-15T22:52:32.259Z,39.46
2019-03-15T22:55:02.622Z,39.42
2019-03-15T22:57:33.864Z,39.40
2019-03-15T23:00:05.897Z,39.29
2019-03-15T23:02:38.220Z,39.25
2019-03-15T23:05:08.646Z,39.23
2019-03-15T23:07:39.034Z,39.14
2019-03-15T23:10:09.518Z,39.08
2019-03-15T23:12:39.822Z,39.01
2019-03-15T23:15:10.122Z,38.96
2019-03-15T23:17:40.467Z,38.96
2019-03-15T23:20:10.818Z,38.90
2019-03-15T23:22:41.201Z,38.91
2019-03-15T23:25:11.582Z,38.84
2019-03-15T23:27:41.859Z,38.73
2019-03-15T23:30:15.079Z,38.76
2019-03-15T23:32:46.456Z,38.73
2019-03-15T23:35:16.775Z,38.74
2019-03-15T23:37:47.027Z,38.67
2019-03-15T23:40:17.330Z,38.66
2019-03-15T23:42:49.468Z,38.57
2019-03-15T23:45:19.799Z,38.56
2019-03-15T23:47:50.078Z,38.54
2019-03-15T23:50:20.380Z,38.52
2019-03-15T23:52:50.706Z,38.53
2019-03-15T23:55:21.006Z,38.51
2019-03-15T23:57:51.334Z,38.58
